• Join FlightAware (Why Join?)
  • Login
  • US Flag 
07:27AM EDT


 

Airport Tracker/Info


-or-


 

Live Flight TrackerFlight Track Log ✈ OPT732 ✈ 03-May-2013 ✈ KTUL - KHAO

Flight Track Log - Related Links

Times and Time Zones

All times are in EDT time to prevent confusion due to time zone crossing. See the OPT732 flight status page for this flight to view local times or setup timezone preferences in your user account.

Time Position Orientation Groundspeed Altitude Reporting Facility
EDT Latitude Longitude Course Direction KTS MPH feet Rate Location/Type
07:41AM 36.1947 -95.9047 271° West 175 201 1,600  Level Kansas City Center
07:42AM 36.1961 -95.9953 271° West 235 270 7,200 4,680 Climbing Kansas City Center
07:42AM 36.2186 -96.0128 328° Northwest 222 255 9,400 3,660 Climbing Kansas City Center
07:43AM 36.2878 -96.0342 346° North 249 287 12,600 2,580 Climbing Kansas City Center
07:44AM 36.3733 -96.0214 North 295 339 14,700 2,100 Climbing Kansas City Center
07:45AM 36.4519 -95.9453 38° Northeast 357 411 16,900 1,860 Climbing Kansas City Center
07:47AM 36.4958 -95.8203 66° East 385 443 18,500 2,160 Climbing Kansas City Center
07:48AM 36.5428 -95.6825 67° East 410 472 21,300 2,340 Climbing Kansas City Center
07:49AM 36.5861 -95.5478 68° East 417 480 23,300 1,860 Climbing Kansas City Center
07:50AM 36.6322 -95.4019 68° East 433 498 25,100 1,860 Climbing Kansas City Center
07:51AM 36.6814 -95.2483 68° East 465 535 27,100 1,980 Climbing Kansas City Center
07:52AM 36.7303 -95.0942 68° East 473 544 29,200 2,040 Climbing Kansas City Center
07:53AM 36.7772 -94.9383 69° East 476 548 31,300 1,620 Climbing Kansas City Center
07:54AM 36.8278 -94.7797 68° East 485 558 32,600 1,320 Climbing Kansas City Center
07:55AM 36.8803 -94.6133 68° East 505 581 34,000 1,320 Climbing Kansas City Center
07:56AM 36.9339 -94.4442 68° East 518 596 35,300 1,200 Climbing Kansas City Center
07:57AM 36.9864 -94.2736 69° East 523 602 36,500 1,140 Climbing Kansas City Center
07:58AM 37.0392 -94.1053 69° East 521 600 37,700 1,140 Climbing Kansas City Center
07:59AM 37.0906 -93.9356 69° East 520 598 38,900 1,080 Climbing Kansas City Center
08:00AM 37.1436 -93.7578 69° East 514 592 39,900 720 Climbing Kansas City Center
08:01AM 37.1944 -93.5894 69° East 515 593 40,400 480 Climbing Kansas City Center
08:02AM 37.2464 -93.4186 69° East 519 597 40,900 540 Climbing Kansas City Center
08:03AM 37.2978 -93.2450 70° East 525 604 41,500 540 Climbing Kansas City Center
08:04AM 37.3481 -93.0714 70° East 526 605 42,100 540 Climbing Kansas City Center
08:05AM 37.3992 -92.9003 69° East 526 605 42,700 540 Climbing Kansas City Center
08:06AM 37.4494 -92.7269 70° East 526 605 43,300 540 Climbing Kansas City Center
08:07AM 37.4992 -92.5544 70° East 527 606 43,800 540 Climbing Kansas City Center
08:08AM 37.5478 -92.3842 70° East 523 602 44,400 540 Climbing Kansas City Center
08:09AM 37.6061 -92.1794 70° East 522 601 45,000 240 Climbing Kansas City Center
08:10AM 37.6558 -92.0072 70° East 526 605 45,000  Level Kansas City Center
08:11AM 37.7058 -91.8317 70° East 533 613 45,000  Level Kansas City Center
08:12AM 37.7558 -91.6531 70° East 539 620 45,000  Level Kansas City Center
08:13AM 37.8064 -91.4744 70° East 540 621 45,000  Level Kansas City Center
08:14AM 37.8567 -91.2944 70° East 542 624 45,000  Level Kansas City Center
08:15AM 37.9067 -91.1142 71° East 542 624 45,000  Level Kansas City Center
08:16AM 37.9506 -90.9478 71° East 542 624 45,000  Level Kansas City Center
08:17AM 38.0089 -90.7322 71° East 543 625 45,000  Level Kansas City Center
08:18AM 38.0569 -90.5514 71° East 545 627 45,000  Level Kansas City Center
08:19AM 38.1044 -90.3714 71° East 544 626 45,000  Level Kansas City Center
08:20AM 38.1519 -90.1933 71° East 539 620 45,000  Level Kansas City Center
08:21AM 38.1983 -90.0150 72° East 536 617 45,000  Level Kansas City Center
08:22AM 38.2317 -89.8286 77° East 543 625 45,000  Level Kansas City Center
08:23AM 38.2497 -89.6219 84° East 530 610 45,000  Level Kansas City Center
08:24AM 38.2703 -89.4236 82° East 528 608 45,000  Level Kansas City Center
08:25AM 38.2883 -89.2383 83° East 529 609 45,000  Level Kansas City Center
08:26AM 38.3064 -89.0536 83° East 528 608 45,000  Level Kansas City Center
08:27AM 38.3233 -88.8717 83° East 527 606 45,000  Level Kansas City Center
08:28AM 38.3428 -88.6722 83° East 524 603 45,000  Level Kansas City Center
08:29AM 38.3614 -88.4886 83° East 524 603 45,000 -360 Level Kansas City Center
08:30AM 38.3772 -88.3028 84° East 527 606 44,300 -1,140 Descending Kansas City Center
08:31AM 38.3947 -88.1219 83° East 515 593 42,800 -1,740 Descending Kansas City Center
08:32AM 38.4108 -87.9464 83° East 500 575 40,800 -2,100 Descending Kansas City Center
08:33AM 38.4189 -87.8406 84° East 501 577 39,600 -2,220 Descending Indianapolis Center
08:34AM 38.4344 -87.6589 84° East 512 589 37,400 -2,040 Descending Indianapolis Center
08:35AM 38.4497 -87.4831 84° East 498 573 35,500 -2,100 Descending Indianapolis Center
08:36AM 38.4647 -87.3028 84° East 504 580 33,100 -2,760 Descending Indianapolis Center
08:37AM 38.4786 -87.1308 84° East 480 552 29,900 -3,060 Descending Indianapolis Center
08:38AM 38.4922 -86.9572 84° East 478 550 26,900 -3,000 Descending Indianapolis Center
08:39AM 38.5061 -86.7839 84° East 484 557 23,800 -2,880 Descending Indianapolis Center
08:40AM 38.5189 -86.6208 84° East 464 534 21,100 -1,800 Descending Indianapolis Center
08:41AM 38.5300 -86.4658 85° East 442 509 20,200 -1,140 Descending Indianapolis Center
08:42AM 38.5417 -86.3131 84° East 432 497 18,800 -1,320 Descending Indianapolis Center
08:43AM 38.5531 -86.1631 84° East 425 489 17,500 -1,320 Descending Indianapolis Center
08:44AM 38.5631 -86.0136 85° East 420 483 16,100 -1,320 Descending Indianapolis Center
08:45AM 38.5736 -85.8675 85° East 414 476 14,900 -1,080 Descending Indianapolis Center
08:46AM 38.5833 -85.7197 85° East 415 478 13,900 -1,020 Descending Indianapolis Center
08:47AM 38.6147 -85.5792 74° East 418 481 12,900 -900 Descending Indianapolis Center
08:48AM 38.6767 -85.4481 59° Northeast 389 448 12,100 -480 Descending Indianapolis Center
08:49AM 38.7253 -85.3400 60° Northeast 359 413 12,000 -60 Descending Indianapolis Center
08:50AM 38.7958 -85.2694 38° Northeast 328 377 12,000  Level Indianapolis Center
08:51AM 38.8711 -85.2114 31° Northeast 317 365 12,000 -300 Level Indianapolis Center
08:52AM 38.9433 -85.1556 31° Northeast 308 354 11,400 -960 Descending Indianapolis Center
08:53AM 39.0217 -85.0928 32° Northeast 280 322 10,100 -660 Descending Indianapolis Center
08:54AM 39.0950 -85.0358 31° Northeast 304 350 10,100 -300 Level Indianapolis Center
08:55AM 39.1669 -84.9786 32° Northeast 306 352 9,600 -1,680 Descending Indianapolis Center
08:56AM 39.2358 -84.9250 31° Northeast 294 338 6,700 -2,760 Descending Indianapolis Center
08:57AM 39.3028 -84.8733 31° Northeast 285 328 4,000 -2,280 Descending Indianapolis Center
08:58AM 39.3500 -84.8333 33° Northeast 266 306 3,100 -660 Descending Cincinnati TRACON
08:59AM 39.4000 -84.7833 38° Northeast 222 255 3,000 -120 Descending Cincinnati TRACON